sensor_id;sensor_type;location;lat;lon;timestamp;P1;durP1;ratioP1;P2;durP2;ratioP2
9815;SDS011;4947;44.526;11.360;2023-03-31T00:00:20;6.40;;;2.13;;
9815;SDS011;4947;44.526;11.360;2023-03-31T00:02:47;6.70;;;2.67;;
9815;SDS011;4947;44.526;11.360;2023-03-31T00:05:17;8.68;;;2.33;;
9815;SDS011;4947;44.526;11.360;2023-03-31T00:07:46;4.57;;;2.10;;
9815;SDS011;4947;44.526;11.360;2023-03-31T00:10:14;8.23;;;1.90;;
9815;SDS011;4947;44.526;11.360;2023-03-31T00:12:43;5.20;;;2.10;;
9815;SDS011;4947;44.526;11.360;2023-03-31T00:15:13;6.95;;;1.88;;
9815;SDS011;4947;44.526;11.360;2023-03-31T00:17:41;5.13;;;2.35;;
9815;SDS011;4947;44.526;11.360;2023-03-31T00:20:09;6.95;;;1.88;;
9815;SDS011;4947;44.526;11.360;2023-03-31T00:22:40;4.65;;;1.83;;
9815;SDS011;4947;44.526;11.360;2023-03-31T00:25:11;5.57;;;1.83;;
9815;SDS011;4947;44.526;11.360;2023-03-31T00:27:40;4.70;;;1.85;;
9815;SDS011;4947;44.526;11.360;2023-03-31T00:30:08;4.25;;;2.00;;
9815;SDS011;4947;44.526;11.360;2023-03-31T00:32:40;7.65;;;2.33;;
9815;SDS011;4947;44.526;11.360;2023-03-31T00:35:08;4.05;;;1.98;;
9815;SDS011;4947;44.526;11.360;2023-03-31T00:37:36;4.25;;;1.90;;
9815;SDS011;4947;44.526;11.360;2023-03-31T00:40:04;5.70;;;1.65;;
9815;SDS011;4947;44.526;11.360;2023-03-31T00:42:37;4.22;;;1.92;;
9815;SDS011;4947;44.526;11.360;2023-03-31T00:45:25;5.03;;;2.00;;
9815;SDS011;4947;44.526;11.360;2023-03-31T00:47:59;2.58;;;1.70;;
9815;SDS011;4947;44.526;11.360;2023-03-31T00:50:34;4.43;;;2.10;;
9815;SDS011;4947;44.526;11.360;2023-03-31T00:53:07;4.65;;;1.90;;
9815;SDS011;4947;44.526;11.360;2023-03-31T00:55:39;4.15;;;1.80;;
9815;SDS011;4947;44.526;11.360;2023-03-31T00:58:10;7.07;;;1.90;;
9815;SDS011;4947;44.526;11.360;2023-03-31T01:00:42;4.60;;;2.00;;
9815;SDS011;4947;44.526;11.360;2023-03-31T01:03:13;5.90;;;2.97;;
9815;SDS011;4947;44.526;11.360;2023-03-31T01:05:43;8.30;;;1.90;;
9815;SDS011;4947;44.526;11.360;2023-03-31T01:08:14;3.78;;;1.95;;
9815;SDS011;4947;44.526;11.360;2023-03-31T01:10:46;3.50;;;1.63;;
9815;SDS011;4947;44.526;11.360;2023-03-31T01:13:17;4.97;;;2.28;;
9815;SDS011;4947;44.526;11.360;2023-03-31T01:15:46;7.95;;;2.25;;
9815;SDS011;4947;44.526;11.360;2023-03-31T01:18:15;8.18;;;2.05;;
9815;SDS011;4947;44.526;11.360;2023-03-31T01:20:50;6.53;;;2.08;;
9815;SDS011;4947;44.526;11.360;2023-03-31T01:26:35;2.78;;;1.98;;
9815;SDS011;4947;44.526;11.360;2023-03-31T01:29:51;4.35;;;2.00;;
9815;SDS011;4947;44.526;11.360;2023-03-31T01:32:56;2.60;;;1.73;;
9815;SDS011;4947;44.526;11.360;2023-03-31T01:38:43;8.45;;;2.20;;
9815;SDS011;4947;44.526;11.360;2023-03-31T01:41:44;9.90;;;2.33;;
9815;SDS011;4947;44.526;11.360;2023-03-31T01:44:19;3.85;;;2.22;;
9815;SDS011;4947;44.526;11.360;2023-03-31T01:46:54;7.13;;;2.35;;
9815;SDS011;4947;44.526;11.360;2023-03-31T01:49:26;6.22;;;2.05;;
9815;SDS011;4947;44.526;11.360;2023-03-31T01:52:02;5.13;;;1.67;;
9815;SDS011;4947;44.526;11.360;2023-03-31T01:54:34;4.78;;;2.95;;
9815;SDS011;4947;44.526;11.360;2023-03-31T01:57:10;3.90;;;2.10;;
9815;SDS011;4947;44.526;11.360;2023-03-31T01:59:42;5.40;;;2.15;;
9815;SDS011;4947;44.526;11.360;2023-03-31T02:02:16;9.43;;;2.28;;
9815;SDS011;4947;44.526;11.360;2023-03-31T02:04:48;6.90;;;2.10;;
9815;SDS011;4947;44.526;11.360;2023-03-31T02:07:19;6.03;;;2.17;;
9815;SDS011;4947;44.526;11.360;2023-03-31T02:09:52;4.15;;;2.35;;
9815;SDS011;4947;44.526;11.360;2023-03-31T02:12:26;6.07;;;1.90;;
9815;SDS011;4947;44.526;11.360;2023-03-31T02:14:56;3.55;;;1.88;;
9815;SDS011;4947;44.526;11.360;2023-03-31T02:17:27;4.93;;;2.15;;
9815;SDS011;4947;44.526;11.360;2023-03-31T02:20:00;5.97;;;2.13;;
9815;SDS011;4947;44.526;11.360;2023-03-31T02:22:32;6.88;;;2.20;;
9815;SDS011;4947;44.526;11.360;2023-03-31T02:25:03;5.28;;;2.13;;
9815;SDS011;4947;44.526;11.360;2023-03-31T02:27:36;8.93;;;2.10;;
9815;SDS011;4947;44.526;11.360;2023-03-31T02:30:08;2.50;;;1.92;;
9815;SDS011;4947;44.526;11.360;2023-03-31T02:32:37;5.20;;;1.90;;
9815;SDS011;4947;44.526;11.360;2023-03-31T02:35:07;6.45;;;2.25;;
9815;SDS011;4947;44.526;11.360;2023-03-31T02:37:38;2.53;;;1.95;;
9815;SDS011;4947;44.526;11.360;2023-03-31T02:40:07;4.18;;;1.92;;
9815;SDS011;4947;44.526;11.360;2023-03-31T02:42:39;6.47;;;2.10;;
9815;SDS011;4947;44.526;11.360;2023-03-31T02:48:08;7.72;;;2.35;;
9815;SDS011;4947;44.526;11.360;2023-03-31T02:50:43;6.03;;;2.35;;
9815;SDS011;4947;44.526;11.360;2023-03-31T02:53:34;5.90;;;2.17;;
9815;SDS011;4947;44.526;11.360;2023-03-31T02:56:16;3.25;;;2.10;;
9815;SDS011;4947;44.526;11.360;2023-03-31T02:59:12;9.82;;;2.88;;
9815;SDS011;4947;44.526;11.360;2023-03-31T03:02:03;3.92;;;2.60;;
9815;SDS011;4947;44.526;11.360;2023-03-31T03:04:42;9.02;;;2.10;;
9815;SDS011;4947;44.526;11.360;2023-03-31T03:07:30;6.43;;;2.30;;
9815;SDS011;4947;44.526;11.360;2023-03-31T03:10:04;4.82;;;2.22;;
9815;SDS011;4947;44.526;11.360;2023-03-31T03:12:36;5.80;;;2.72;;
9815;SDS011;4947;44.526;11.360;2023-03-31T03:15:13;8.60;;;2.80;;
9815;SDS011;4947;44.526;11.360;2023-03-31T03:17:46;6.03;;;2.70;;
9815;SDS011;4947;44.526;11.360;2023-03-31T03:20:15;5.75;;;2.78;;
9815;SDS011;4947;44.526;11.360;2023-03-31T03:22:46;8.43;;;2.38;;
9815;SDS011;4947;44.526;11.360;2023-03-31T03:25:15;9.65;;;2.78;;
9815;SDS011;4947;44.526;11.360;2023-03-31T03:27:44;8.02;;;2.72;;
9815;SDS011;4947;44.526;11.360;2023-03-31T03:30:14;4.78;;;2.40;;
9815;SDS011;4947;44.526;11.360;2023-03-31T03:32:42;7.20;;;2.40;;
9815;SDS011;4947;44.526;11.360;2023-03-31T03:35:10;5.07;;;2.40;;
9815;SDS011;4947;44.526;11.360;2023-03-31T03:37:38;3.15;;;2.28;;
9815;SDS011;4947;44.526;11.360;2023-03-31T03:40:06;4.30;;;2.35;;
9815;SDS011;4947;44.526;11.360;2023-03-31T03:42:35;3.67;;;3.17;;
9815;SDS011;4947;44.526;11.360;2023-03-31T03:45:03;9.10;;;3.17;;
9815;SDS011;4947;44.526;11.360;2023-03-31T03:47:33;5.10;;;2.33;;
9815;SDS011;4947;44.526;11.360;2023-03-31T03:50:01;5.18;;;2.78;;
9815;SDS011;4947;44.526;11.360;2023-03-31T03:52:29;7.07;;;3.00;;
9815;SDS011;4947;44.526;11.360;2023-03-31T03:54:56;6.95;;;3.47;;
9815;SDS011;4947;44.526;11.360;2023-03-31T03:57:25;10.90;;;2.83;;
9815;SDS011;4947;44.526;11.360;2023-03-31T03:59:54;13.45;;;3.53;;
9815;SDS011;4947;44.526;11.360;2023-03-31T04:02:25;7.15;;;2.90;;
9815;SDS011;4947;44.526;11.360;2023-03-31T04:04:56;9.50;;;3.28;;
9815;SDS011;4947;44.526;11.360;2023-03-31T04:07:23;8.63;;;2.83;;
9815;SDS011;4947;44.526;11.360;2023-03-31T04:09:51;6.05;;;4.05;;
9815;SDS011;4947;44.526;11.360;2023-03-31T04:12:18;6.15;;;2.83;;
9815;SDS011;4947;44.526;11.360;2023-03-31T04:14:46;9.00;;;3.50;;
9815;SDS011;4947;44.526;11.360;2023-03-31T04:17:13;6.47;;;3.03;;
9815;SDS011;4947;44.526;11.360;2023-03-31T04:19:57;8.88;;;3.72;;
9815;SDS011;4947;44.526;11.360;2023-03-31T04:22:27;7.15;;;4.15;;
9815;SDS011;4947;44.526;11.360;2023-03-31T04:24:59;10.02;;;4.45;;
9815;SDS011;4947;44.526;11.360;2023-03-31T04:27:27;8.18;;;4.50;;
9815;SDS011;4947;44.526;11.360;2023-03-31T04:29:55;7.05;;;5.03;;
9815;SDS011;4947;44.526;11.360;2023-03-31T04:32:23;14.02;;;5.80;;
9815;SDS011;4947;44.526;11.360;2023-03-31T04:34:50;9.07;;;5.10;;
9815;SDS011;4947;44.526;11.360;2023-03-31T04:37:28;10.50;;;5.47;;
9815;SDS011;4947;44.526;11.360;2023-03-31T04:39:58;10.85;;;5.80;;
9815;SDS011;4947;44.526;11.360;2023-03-31T04:42:32;11.73;;;6.13;;
9815;SDS011;4947;44.526;11.360;2023-03-31T04:44:59;10.20;;;5.72;;
9815;SDS011;4947;44.526;11.360;2023-03-31T04:47:27;10.05;;;5.50;;
9815;SDS011;4947;44.526;11.360;2023-03-31T04:49:55;14.07;;;6.85;;
9815;SDS011;4947;44.526;11.360;2023-03-31T04:52:22;9.70;;;6.50;;
9815;SDS011;4947;44.526;11.360;2023-03-31T04:54:52;8.98;;;6.43;;
9815;SDS011;4947;44.526;11.360;2023-03-31T04:57:20;11.20;;;7.18;;
9815;SDS011;4947;44.526;11.360;2023-03-31T04:59:47;11.40;;;6.70;;
9815;SDS011;4947;44.526;11.360;2023-03-31T05:02:16;12.77;;;7.97;;
9815;SDS011;4947;44.526;11.360;2023-03-31T05:04:47;12.63;;;7.85;;
9815;SDS011;4947;44.526;11.360;2023-03-31T05:07:16;14.50;;;7.45;;
9815;SDS011;4947;44.526;11.360;2023-03-31T05:09:43;13.07;;;7.18;;
9815;SDS011;4947;44.526;11.360;2023-03-31T05:12:13;12.27;;;7.53;;
9815;SDS011;4947;44.526;11.360;2023-03-31T05:14:41;10.35;;;7.38;;
9815;SDS011;4947;44.526;11.360;2023-03-31T05:17:08;17.25;;;7.50;;
9815;SDS011;4947;44.526;11.360;2023-03-31T05:19:36;11.95;;;7.18;;
9815;SDS011;4947;44.526;11.360;2023-03-31T05:22:04;12.80;;;6.93;;
9815;SDS011;4947;44.526;11.360;2023-03-31T05:24:32;20.55;;;7.93;;
9815;SDS011;4947;44.526;11.360;2023-03-31T05:27:00;17.63;;;7.32;;
9815;SDS011;4947;44.526;11.360;2023-03-31T05:29:29;16.10;;;7.07;;
9815;SDS011;4947;44.526;11.360;2023-03-31T05:31:57;11.48;;;7.07;;
9815;SDS011;4947;44.526;11.360;2023-03-31T05:34:25;9.52;;;6.97;;
9815;SDS011;4947;44.526;11.360;2023-03-31T05:36:53;10.85;;;7.18;;
9815;SDS011;4947;44.526;11.360;2023-03-31T05:39:21;10.98;;;7.82;;
9815;SDS011;4947;44.526;11.360;2023-03-31T05:41:49;19.88;;;7.78;;
9815;SDS011;4947;44.526;11.360;2023-03-31T05:44:17;17.95;;;8.55;;
9815;SDS011;4947;44.526;11.360;2023-03-31T05:46:46;17.48;;;8.85;;
9815;SDS011;4947;44.526;11.360;2023-03-31T05:49:13;17.92;;;8.88;;
9815;SDS011;4947;44.526;11.360;2023-03-31T05:51:42;15.75;;;9.18;;
9815;SDS011;4947;44.526;11.360;2023-03-31T05:54:09;14.93;;;9.05;;
9815;SDS011;4947;44.526;11.360;2023-03-31T05:56:38;15.43;;;8.25;;
9815;SDS011;4947;44.526;11.360;2023-03-31T05:59:06;15.18;;;7.63;;
9815;SDS011;4947;44.526;11.360;2023-03-31T06:01:34;17.60;;;8.63;;
9815;SDS011;4947;44.526;11.360;2023-03-31T06:04:02;13.82;;;7.45;;
9815;SDS011;4947;44.526;11.360;2023-03-31T06:06:30;17.25;;;7.65;;
9815;SDS011;4947;44.526;11.360;2023-03-31T06:08:59;15.82;;;7.75;;
9815;SDS011;4947;44.526;11.360;2023-03-31T06:11:26;17.00;;;7.57;;
9815;SDS011;4947;44.526;11.360;2023-03-31T06:13:54;9.20;;;6.50;;
9815;SDS011;4947;44.526;11.360;2023-03-31T06:16:22;12.23;;;6.97;;
9815;SDS011;4947;44.526;11.360;2023-03-31T06:18:50;11.95;;;6.32;;
9815;SDS011;4947;44.526;11.360;2023-03-31T06:21:20;15.90;;;6.30;;
9815;SDS011;4947;44.526;11.360;2023-03-31T06:23:47;10.43;;;5.88;;
9815;SDS011;4947;44.526;11.360;2023-03-31T06:26:19;15.60;;;5.65;;
9815;SDS011;4947;44.526;11.360;2023-03-31T06:28:47;10.05;;;5.75;;
9815;SDS011;4947;44.526;11.360;2023-03-31T06:31:15;10.02;;;6.03;;
9815;SDS011;4947;44.526;11.360;2023-03-31T06:33:44;10.75;;;6.50;;
9815;SDS011;4947;44.526;11.360;2023-03-31T06:36:13;12.15;;;6.43;;
9815;SDS011;4947;44.526;11.360;2023-03-31T06:38:44;16.20;;;6.65;;
9815;SDS011;4947;44.526;11.360;2023-03-31T06:41:12;12.52;;;6.13;;
9815;SDS011;4947;44.526;11.360;2023-03-31T06:43:44;14.15;;;6.75;;
9815;SDS011;4947;44.526;11.360;2023-03-31T06:46:13;14.43;;;6.82;;
9815;SDS011;4947;44.526;11.360;2023-03-31T06:48:41;17.92;;;8.40;;
9815;SDS011;4947;44.526;11.360;2023-03-31T06:51:09;18.08;;;7.78;;
9815;SDS011;4947;44.526;11.360;2023-03-31T06:53:37;11.40;;;6.70;;
9815;SDS011;4947;44.526;11.360;2023-03-31T06:56:06;12.50;;;6.20;;
9815;SDS011;4947;44.526;11.360;2023-03-31T06:58:34;14.25;;;6.78;;
9815;SDS011;4947;44.526;11.360;2023-03-31T07:01:03;14.48;;;7.13;;
9815;SDS011;4947;44.526;11.360;2023-03-31T07:03:31;14.85;;;5.75;;
9815;SDS011;4947;44.526;11.360;2023-03-31T07:05:59;13.30;;;6.40;;
9815;SDS011;4947;44.526;11.360;2023-03-31T07:08:26;12.07;;;4.50;;
9815;SDS011;4947;44.526;11.360;2023-03-31T07:10:54;9.65;;;4.60;;
9815;SDS011;4947;44.526;11.360;2023-03-31T07:13:25;13.63;;;4.70;;
9815;SDS011;4947;44.526;11.360;2023-03-31T07:15:53;8.52;;;4.38;;
9815;SDS011;4947;44.526;11.360;2023-03-31T07:18:21;5.63;;;4.72;;
9815;SDS011;4947;44.526;11.360;2023-03-31T07:20:50;6.07;;;4.50;;
9815;SDS011;4947;44.526;11.360;2023-03-31T07:23:18;10.52;;;5.10;;
9815;SDS011;4947;44.526;11.360;2023-03-31T07:25:46;9.38;;;5.15;;
9815;SDS011;4947;44.526;11.360;2023-03-31T07:28:14;5.25;;;3.45;;
9815;SDS011;4947;44.526;11.360;2023-03-31T07:30:43;8.23;;;2.85;;
9815;SDS011;4947;44.526;11.360;2023-03-31T07:33:11;8.27;;;2.90;;
9815;SDS011;4947;44.526;11.360;2023-03-31T07:35:39;9.05;;;3.88;;
9815;SDS011;4947;44.526;11.360;2023-03-31T07:38:07;7.10;;;4.75;;
9815;SDS011;4947;44.526;11.360;2023-03-31T07:40:35;10.80;;;5.13;;
9815;SDS011;4947;44.526;11.360;2023-03-31T07:43:02;10.13;;;6.68;;
9815;SDS011;4947;44.526;11.360;2023-03-31T07:45:31;11.25;;;5.15;;
9815;SDS011;4947;44.526;11.360;2023-03-31T07:48:00;9.18;;;4.90;;
9815;SDS011;4947;44.526;11.360;2023-03-31T07:50:28;9.68;;;5.88;;
9815;SDS011;4947;44.526;11.360;2023-03-31T07:52:56;9.10;;;5.68;;
9815;SDS011;4947;44.526;11.360;2023-03-31T07:55:24;11.13;;;6.57;;
9815;SDS011;4947;44.526;11.360;2023-03-31T07:57:52;13.15;;;6.10;;
9815;SDS011;4947;44.526;11.360;2023-03-31T08:00:19;14.73;;;5.80;;
9815;SDS011;4947;44.526;11.360;2023-03-31T08:02:51;7.60;;;5.03;;
9815;SDS011;4947;44.526;11.360;2023-03-31T08:05:20;10.30;;;4.75;;
9815;SDS011;4947;44.526;11.360;2023-03-31T08:07:48;5.32;;;4.10;;
9815;SDS011;4947;44.526;11.360;2023-03-31T08:10:17;9.25;;;4.60;;
9815;SDS011;4947;44.526;11.360;2023-03-31T08:12:47;8.85;;;4.25;;
9815;SDS011;4947;44.526;11.360;2023-03-31T08:15:15;5.97;;;3.15;;
9815;SDS011;4947;44.526;11.360;2023-03-31T08:17:43;8.55;;;3.92;;
9815;SDS011;4947;44.526;11.360;2023-03-31T08:20:11;6.20;;;3.50;;
9815;SDS011;4947;44.526;11.360;2023-03-31T08:22:40;9.88;;;3.70;;
9815;SDS011;4947;44.526;11.360;2023-03-31T08:25:08;9.93;;;4.15;;
9815;SDS011;4947;44.526;11.360;2023-03-31T08:27:37;9.27;;;3.65;;
9815;SDS011;4947;44.526;11.360;2023-03-31T08:30:06;9.88;;;3.10;;
9815;SDS011;4947;44.526;11.360;2023-03-31T08:32:36;9.15;;;3.47;;
9815;SDS011;4947;44.526;11.360;2023-03-31T08:35:04;8.05;;;3.95;;
9815;SDS011;4947;44.526;11.360;2023-03-31T08:37:32;6.63;;;2.95;;
9815;SDS011;4947;44.526;11.360;2023-03-31T08:40:03;7.60;;;3.45;;
9815;SDS011;4947;44.526;11.360;2023-03-31T08:42:34;10.13;;;4.50;;
9815;SDS011;4947;44.526;11.360;2023-03-31T08:45:05;10.38;;;4.68;;
9815;SDS011;4947;44.526;11.360;2023-03-31T08:47:41;11.93;;;4.72;;
9815;SDS011;4947;44.526;11.360;2023-03-31T08:50:12;12.43;;;4.35;;
9815;SDS011;4947;44.526;11.360;2023-03-31T08:52:43;7.50;;;4.32;;
9815;SDS011;4947;44.526;11.360;2023-03-31T08:55:17;14.80;;;4.47;;
9815;SDS011;4947;44.526;11.360;2023-03-31T08:57:51;7.85;;;4.40;;
9815;SDS011;4947;44.526;11.360;2023-03-31T09:00:22;9.63;;;3.47;;
9815;SDS011;4947;44.526;11.360;2023-03-31T09:02:52;7.85;;;3.65;;
9815;SDS011;4947;44.526;11.360;2023-03-31T09:05:28;6.75;;;3.80;;
9815;SDS011;4947;44.526;11.360;2023-03-31T09:08:09;14.02;;;4.25;;
9815;SDS011;4947;44.526;11.360;2023-03-31T09:10:44;5.53;;;3.90;;
9815;SDS011;4947;44.526;11.360;2023-03-31T09:13:31;12.98;;;3.78;;
9815;SDS011;4947;44.526;11.360;2023-03-31T09:16:21;9.60;;;3.90;;
9815;SDS011;4947;44.526;11.360;2023-03-31T09:18:57;9.98;;;3.75;;
9815;SDS011;4947;44.526;11.360;2023-03-31T09:21:29;12.48;;;4.28;;
9815;SDS011;4947;44.526;11.360;2023-03-31T09:24:01;8.52;;;3.97;;
9815;SDS011;4947;44.526;11.360;2023-03-31T09:26:36;10.05;;;3.42;;
9815;SDS011;4947;44.526;11.360;2023-03-31T09:29:10;9.48;;;3.60;;
9815;SDS011;4947;44.526;11.360;2023-03-31T09:31:43;8.98;;;3.28;;
9815;SDS011;4947;44.526;11.360;2023-03-31T09:34:13;5.97;;;3.28;;
9815;SDS011;4947;44.526;11.360;2023-03-31T09:36:42;8.73;;;4.55;;
9815;SDS011;4947;44.526;11.360;2023-03-31T09:39:11;11.23;;;4.85;;
9815;SDS011;4947;44.526;11.360;2023-03-31T09:41:43;10.38;;;4.78;;
9815;SDS011;4947;44.526;11.360;2023-03-31T09:44:22;8.60;;;4.63;;
9815;SDS011;4947;44.526;11.360;2023-03-31T09:46:53;12.88;;;4.40;;
9815;SDS011;4947;44.526;11.360;2023-03-31T09:49:22;11.13;;;4.85;;
9815;SDS011;4947;44.526;11.360;2023-03-31T09:51:58;9.05;;;4.22;;
9815;SDS011;4947;44.526;11.360;2023-03-31T09:54:31;6.20;;;3.97;;
9815;SDS011;4947;44.526;11.360;2023-03-31T09:57:14;11.75;;;5.30;;
9815;SDS011;4947;44.526;11.360;2023-03-31T09:59:50;8.55;;;4.50;;
9815;SDS011;4947;44.526;11.360;2023-03-31T10:02:28;7.35;;;4.45;;
9815;SDS011;4947;44.526;11.360;2023-03-31T10:05:01;11.98;;;3.85;;
9815;SDS011;4947;44.526;11.360;2023-03-31T10:07:30;16.15;;;4.03;;
9815;SDS011;4947;44.526;11.360;2023-03-31T10:09:58;7.75;;;4.18;;
9815;SDS011;4947;44.526;11.360;2023-03-31T10:12:28;6.38;;;3.47;;
9815;SDS011;4947;44.526;11.360;2023-03-31T10:15:13;4.82;;;3.58;;
9815;SDS011;4947;44.526;11.360;2023-03-31T10:17:45;10.45;;;3.90;;
9815;SDS011;4947;44.526;11.360;2023-03-31T10:20:18;11.68;;;4.05;;
9815;SDS011;4947;44.526;11.360;2023-03-31T10:22:53;7.93;;;4.35;;
9815;SDS011;4947;44.526;11.360;2023-03-31T10:25:22;6.97;;;3.67;;
9815;SDS011;4947;44.526;11.360;2023-03-31T10:27:55;9.98;;;3.50;;
9815;SDS011;4947;44.526;11.360;2023-03-31T10:30:23;9.57;;;4.68;;
9815;SDS011;4947;44.526;11.360;2023-03-31T10:32:54;12.07;;;3.65;;
9815;SDS011;4947;44.526;11.360;2023-03-31T10:35:24;11.77;;;5.32;;
9815;SDS011;4947;44.526;11.360;2023-03-31T10:37:55;9.50;;;3.35;;
9815;SDS011;4947;44.526;11.360;2023-03-31T10:40:26;10.25;;;3.50;;
9815;SDS011;4947;44.526;11.360;2023-03-31T10:43:00;10.80;;;3.50;;
9815;SDS011;4947;44.526;11.360;2023-03-31T10:45:35;9.35;;;3.40;;
9815;SDS011;4947;44.526;11.360;2023-03-31T10:48:04;8.07;;;2.80;;
9815;SDS011;4947;44.526;11.360;2023-03-31T10:50:43;8.80;;;3.70;;
9815;SDS011;4947;44.526;11.360;2023-03-31T10:53:11;11.93;;;3.00;;
9815;SDS011;4947;44.526;11.360;2023-03-31T10:55:41;10.05;;;3.38;;
9815;SDS011;4947;44.526;11.360;2023-03-31T10:58:22;6.75;;;2.95;;
9815;SDS011;4947;44.526;11.360;2023-03-31T11:01:02;7.93;;;3.00;;
9815;SDS011;4947;44.526;11.360;2023-03-31T11:03:46;7.65;;;3.05;;
9815;SDS011;4947;44.526;11.360;2023-03-31T11:06:24;7.65;;;2.20;;
9815;SDS011;4947;44.526;11.360;2023-03-31T11:08:59;9.70;;;2.50;;
9815;SDS011;4947;44.526;11.360;2023-03-31T11:14:28;8.73;;;3.08;;
9815;SDS011;4947;44.526;11.360;2023-03-31T11:17:08;7.25;;;2.72;;
9815;SDS011;4947;44.526;11.360;2023-03-31T11:19:48;15.15;;;2.95;;
9815;SDS011;4947;44.526;11.360;2023-03-31T11:22:25;7.50;;;2.40;;
9815;SDS011;4947;44.526;11.360;2023-03-31T11:25:13;10.57;;;3.10;;
9815;SDS011;4947;44.526;11.360;2023-03-31T11:27:56;8.57;;;2.88;;
9815;SDS011;4947;44.526;11.360;2023-03-31T11:30:38;5.40;;;2.40;;
9815;SDS011;4947;44.526;11.360;2023-03-31T11:33:20;9.23;;;2.83;;
9815;SDS011;4947;44.526;11.360;2023-03-31T11:36:05;7.63;;;2.20;;
9815;SDS011;4947;44.526;11.360;2023-03-31T11:38:44;7.20;;;2.42;;
9815;SDS011;4947;44.526;11.360;2023-03-31T11:41:19;5.38;;;2.75;;
9815;SDS011;4947;44.526;11.360;2023-03-31T11:43:54;8.27;;;2.25;;
9815;SDS011;4947;44.526;11.360;2023-03-31T11:46:30;10.18;;;2.63;;
9815;SDS011;4947;44.526;11.360;2023-03-31T11:49:01;4.50;;;2.08;;
9815;SDS011;4947;44.526;11.360;2023-03-31T11:51:33;4.30;;;2.28;;
9815;SDS011;4947;44.526;11.360;2023-03-31T11:54:07;5.38;;;2.28;;
9815;SDS011;4947;44.526;11.360;2023-03-31T11:56:42;7.53;;;2.42;;
9815;SDS011;4947;44.526;11.360;2023-03-31T11:59:10;6.82;;;2.47;;
9815;SDS011;4947;44.526;11.360;2023-03-31T12:01:43;11.00;;;2.53;;
9815;SDS011;4947;44.526;11.360;2023-03-31T12:04:18;8.25;;;2.53;;
9815;SDS011;4947;44.526;11.360;2023-03-31T12:06:56;7.80;;;2.50;;
9815;SDS011;4947;44.526;11.360;2023-03-31T12:09:29;6.95;;;2.50;;
9815;SDS011;4947;44.526;11.360;2023-03-31T12:12:05;7.45;;;2.53;;
9815;SDS011;4947;44.526;11.360;2023-03-31T12:14:39;6.35;;;2.47;;
9815;SDS011;4947;44.526;11.360;2023-03-31T12:17:12;9.75;;;2.30;;
9815;SDS011;4947;44.526;11.360;2023-03-31T12:19:43;3.65;;;2.38;;
9815;SDS011;4947;44.526;11.360;2023-03-31T12:22:15;8.00;;;2.75;;
9815;SDS011;4947;44.526;11.360;2023-03-31T12:24:46;6.00;;;2.80;;
9815;SDS011;4947;44.526;11.360;2023-03-31T12:27:15;6.47;;;2.42;;
9815;SDS011;4947;44.526;11.360;2023-03-31T12:29:47;8.95;;;2.90;;
9815;SDS011;4947;44.526;11.360;2023-03-31T12:32:24;15.95;;;2.75;;
9815;SDS011;4947;44.526;11.360;2023-03-31T12:34:57;8.05;;;2.50;;
9815;SDS011;4947;44.526;11.360;2023-03-31T12:37:31;8.80;;;2.70;;
9815;SDS011;4947;44.526;11.360;2023-03-31T12:40:30;17.33;;;2.85;;
9815;SDS011;4947;44.526;11.360;2023-03-31T12:43:15;11.90;;;2.72;;
9815;SDS011;4947;44.526;11.360;2023-03-31T12:46:00;10.05;;;2.22;;
9815;SDS011;4947;44.526;11.360;2023-03-31T12:51:45;8.27;;;2.17;;
9815;SDS011;4947;44.526;11.360;2023-03-31T12:54:34;6.53;;;2.10;;
9815;SDS011;4947;44.526;11.360;2023-03-31T12:57:22;5.60;;;2.10;;
9815;SDS011;4947;44.526;11.360;2023-03-31T13:05:54;4.68;;;1.70;;
9815;SDS011;4947;44.526;11.360;2023-03-31T13:11:19;4.82;;;2.08;;
9815;SDS011;4947;44.526;11.360;2023-03-31T13:13:56;3.58;;;1.70;;
9815;SDS011;4947;44.526;11.360;2023-03-31T13:16:26;5.22;;;2.55;;
9815;SDS011;4947;44.526;11.360;2023-03-31T13:18:54;4.35;;;1.85;;
9815;SDS011;4947;44.526;11.360;2023-03-31T13:21:24;3.10;;;1.83;;
9815;SDS011;4947;44.526;11.360;2023-03-31T13:23:52;3.03;;;1.70;;
9815;SDS011;4947;44.526;11.360;2023-03-31T13:26:37;5.20;;;2.75;;
9815;SDS011;4947;44.526;11.360;2023-03-31T13:29:23;13.23;;;5.10;;
9815;SDS011;4947;44.526;11.360;2023-03-31T13:32:07;6.97;;;3.13;;
9815;SDS011;4947;44.526;11.360;2023-03-31T13:34:46;4.00;;;2.13;;
9815;SDS011;4947;44.526;11.360;2023-03-31T13:37:22;8.60;;;2.80;;
9815;SDS011;4947;44.526;11.360;2023-03-31T13:40:17;2.65;;;2.05;;
9815;SDS011;4947;44.526;11.360;2023-03-31T13:43:06;2.95;;;1.95;;
9815;SDS011;4947;44.526;11.360;2023-03-31T13:46:04;3.90;;;2.60;;
9815;SDS011;4947;44.526;11.360;2023-03-31T13:48:48;5.00;;;2.42;;
9815;SDS011;4947;44.526;11.360;2023-03-31T13:51:34;3.67;;;1.85;;
9815;SDS011;4947;44.526;11.360;2023-03-31T14:00:45;6.18;;;2.30;;
9815;SDS011;4947;44.526;11.360;2023-03-31T14:03:26;5.45;;;2.20;;
9815;SDS011;4947;44.526;11.360;2023-03-31T14:06:00;8.43;;;4.80;;
9815;SDS011;4947;44.526;11.360;2023-03-31T14:08:42;7.05;;;3.78;;
9815;SDS011;4947;44.526;11.360;2023-03-31T14:11:17;5.38;;;2.67;;
9815;SDS011;4947;44.526;11.360;2023-03-31T14:13:58;8.23;;;2.72;;
9815;SDS011;4947;44.526;11.360;2023-03-31T14:16:26;4.63;;;2.20;;
9815;SDS011;4947;44.526;11.360;2023-03-31T14:18:56;4.63;;;2.35;;
9815;SDS011;4947;44.526;11.360;2023-03-31T14:21:34;4.63;;;2.00;;
9815;SDS011;4947;44.526;11.360;2023-03-31T14:24:09;7.50;;;2.10;;
9815;SDS011;4947;44.526;11.360;2023-03-31T14:26:52;4.50;;;2.42;;
9815;SDS011;4947;44.526;11.360;2023-03-31T14:29:27;7.57;;;2.50;;
9815;SDS011;4947;44.526;11.360;2023-03-31T14:32:03;4.78;;;1.98;;
9815;SDS011;4947;44.526;11.360;2023-03-31T14:34:42;4.90;;;2.45;;
9815;SDS011;4947;44.526;11.360;2023-03-31T14:37:19;4.55;;;1.98;;
9815;SDS011;4947;44.526;11.360;2023-03-31T14:39:48;5.70;;;2.17;;
9815;SDS011;4947;44.526;11.360;2023-03-31T14:42:21;5.78;;;2.20;;
9815;SDS011;4947;44.526;11.360;2023-03-31T14:44:54;5.82;;;2.47;;
9815;SDS011;4947;44.526;11.360;2023-03-31T14:47:23;7.85;;;2.50;;
9815;SDS011;4947;44.526;11.360;2023-03-31T14:49:59;4.10;;;2.35;;
9815;SDS011;4947;44.526;11.360;2023-03-31T14:52:28;4.55;;;3.13;;
9815;SDS011;4947;44.526;11.360;2023-03-31T14:54:58;4.18;;;2.08;;
9815;SDS011;4947;44.526;11.360;2023-03-31T14:57:28;6.05;;;2.35;;
9815;SDS011;4947;44.526;11.360;2023-03-31T14:59:59;6.13;;;2.20;;
9815;SDS011;4947;44.526;11.360;2023-03-31T15:02:31;4.47;;;1.98;;
9815;SDS011;4947;44.526;11.360;2023-03-31T15:05:02;5.50;;;2.20;;
9815;SDS011;4947;44.526;11.360;2023-03-31T15:07:31;4.03;;;2.28;;
9815;SDS011;4947;44.526;11.360;2023-03-31T15:09:58;4.20;;;2.20;;
9815;SDS011;4947;44.526;11.360;2023-03-31T15:12:28;5.65;;;2.40;;
9815;SDS011;4947;44.526;11.360;2023-03-31T15:14:59;8.63;;;2.72;;
9815;SDS011;4947;44.526;11.360;2023-03-31T15:17:31;7.10;;;2.53;;
9815;SDS011;4947;44.526;11.360;2023-03-31T15:20:19;6.03;;;2.15;;
9815;SDS011;4947;44.526;11.360;2023-03-31T15:22:52;6.45;;;2.65;;
9815;SDS011;4947;44.526;11.360;2023-03-31T15:25:20;5.03;;;2.58;;
9815;SDS011;4947;44.526;11.360;2023-03-31T15:27:52;4.60;;;2.42;;
9815;SDS011;4947;44.526;11.360;2023-03-31T15:30:22;7.50;;;2.85;;
9815;SDS011;4947;44.526;11.360;2023-03-31T15:32:51;7.40;;;2.55;;
9815;SDS011;4947;44.526;11.360;2023-03-31T15:35:19;7.60;;;2.63;;
9815;SDS011;4947;44.526;11.360;2023-03-31T15:37:55;9.35;;;2.55;;
9815;SDS011;4947;44.526;11.360;2023-03-31T15:40:24;7.55;;;2.88;;
9815;SDS011;4947;44.526;11.360;2023-03-31T15:42:56;8.68;;;2.75;;
9815;SDS011;4947;44.526;11.360;2023-03-31T15:45:43;4.15;;;2.35;;
9815;SDS011;4947;44.526;11.360;2023-03-31T15:48:15;8.82;;;2.90;;
9815;SDS011;4947;44.526;11.360;2023-03-31T15:50:45;8.07;;;2.35;;
9815;SDS011;4947;44.526;11.360;2023-03-31T15:53:24;8.35;;;3.30;;
9815;SDS011;4947;44.526;11.360;2023-03-31T15:55:55;5.25;;;2.70;;
9815;SDS011;4947;44.526;11.360;2023-03-31T15:58:44;6.40;;;2.83;;
9815;SDS011;4947;44.526;11.360;2023-03-31T16:01:13;4.80;;;2.85;;